CheckWX is a tool to help pilots better visualize weather data.  It is not intended as a substitute for an official pre-flight weather briefing.

01:17:40 UTC

KHHR METAR
Jack Northrop Field / Hawthorne Municipal Airport
Hawthorne, California, USA
Current

25 mins ago

KHHR 200053Z 28008KT 10SM CLR 22/16 A2990 RMK AO2 SLP123 T02220161
Observed
Aug-20 @ 00:53 UTC
Wind
  • 280° at 8 KTS
Visibility
10 SM
Flight Rules
VFR
Cloud Levels
  • Clear skies
Temperature
22°C / 72°F
Dewpoint
16°C / 61°F
Humidity
69%
Altimeter
29.9" Hg
Pressure
1012.52 hPa
Previous

1 hour ago

KHHR 192353Z 28010G15KT 10SM CLR 23/16 A2991 RMK AO2 SLP127 T02280161 10250 20228 56015
Observed
Aug-19 @ 23:53 UTC
Wind
  • 280° at 10 KTS
  • Gusting to 15 KTS
Visibility
10 SM
Flight Rules
VFR
Cloud Levels
  • Clear skies
Temperature
23°C / 73°F
Dewpoint
16°C / 61°F
Humidity
65%
Altimeter
29.91" Hg
Pressure
1012.92 hPa
Previous

2 hours ago

KHHR 192253Z 26011KT 10SM CLR 24/16 A2992 RMK AO2 SLP130 T02390161
Observed
Aug-19 @ 22:53 UTC
Wind
  • 260° at 11 KTS
Visibility
10 SM
Flight Rules
VFR
Cloud Levels
  • Clear skies
Temperature
24°C / 75°F
Dewpoint
16°C / 61°F
Humidity
61%
Altimeter
29.92" Hg
Pressure
1013.22 hPa